Time;durP1;ratioP1;P1;durP2;ratioP2;P2;SDS_P1;SDS_P2;PMS_P1;PMS_P2;Temp;Humidity;BMP_temperature;BMP_pressure;BME280_temperature;BME280_humidity;BME280_pressure;Samples;Min_cycle;Max_cycle;Signal;HPM_P1;HPM_P2
2021/01/28 00:02:16;;;;;;;126.47;32.65;;;7.10;97.30;;;;;;4987300;28;20022;-74
2021/01/28 00:04:42;;;;;;;130.68;35.88;;;7.10;97.30;;;;;;5029875;28;20023;-74
2021/01/28 00:07:07;;;;;;;124.00;31.52;;;7.10;97.30;;;;;;4985048;28;20033;-74
2021/01/28 00:09:33;;;;;;;144.45;35.55;;;7.10;97.30;;;;;;4998197;28;20046;-74
2021/01/28 00:11:58;;;;;;;126.32;33.15;;;7.10;97.30;;;;;;4983695;28;20507;-74
2021/01/28 00:14:24;;;;;;;137.63;32.83;;;7.10;97.30;;;;;;4983640;28;20037;-74
2021/01/28 00:16:49;;;;;;;131.38;32.10;;;7.20;97.30;;;;;;4984536;28;20046;-74
2021/01/28 00:19:15;;;;;;;143.82;32.53;;;7.10;97.30;;;;;;4985762;28;20031;-74
2021/01/28 00:21:41;;;;;;;132.20;31.60;;;7.20;97.30;;;;;;4986991;28;20031;-74
2021/01/28 00:24:06;;;;;;;151.15;32.70;;;7.20;97.30;;;;;;4988963;28;20040;-74
2021/01/28 00:26:32;;;;;;;180.20;36.60;;;7.20;97.30;;;;;;4997544;28;20020;-74
2021/01/28 00:28:57;;;;;;;158.75;34.47;;;7.10;97.30;;;;;;4988547;28;20026;-74
2021/01/28 00:31:23;;;;;;;141.65;34.25;;;7.10;97.30;;;;;;4987101;28;20117;-75
2021/01/28 00:33:48;;;;;;;145.40;35.15;;;7.20;97.30;;;;;;4989529;28;20030;-74
2021/01/28 00:36:14;;;;;;;134.23;33.45;;;7.20;97.30;;;;;;4981395;28;20105;-74
2021/01/28 00:38:40;;;;;;;143.65;33.55;;;7.20;97.40;;;;;;4985916;28;20035;-74
2021/01/28 00:41:09;;;;;;;233.18;35.42;;;7.20;97.40;;;;;;4984315;28;20366;-74
2021/01/28 00:43:34;;;;;;;156.43;34.83;;;7.30;97.40;;;;;;4984201;28;20557;-75
2021/01/28 00:46:00;;;;;;;141.07;34.60;;;7.30;97.40;;;;;;4988248;28;20038;-75
2021/01/28 00:48:26;;;;;;;153.35;35.40;;;7.30;97.40;;;;;;5012838;28;20076;-75
2021/01/28 00:50:57;;;;;;;139.52;34.25;;;7.20;97.30;;;;;;4988454;28;20034;-75
2021/01/28 00:53:23;;;;;;;134.60;33.58;;;7.20;97.30;;;;;;4983395;28;20035;-74
2021/01/28 00:55:49;;;;;;;152.10;34.45;;;7.20;97.20;;;;;;4988694;28;20030;-75
2021/01/28 00:58:17;;;;;;;155.35;34.40;;;7.20;97.20;;;;;;4989456;28;20037;-75
2021/01/28 01:00:44;;;;;;;143.02;35.08;;;7.20;97.30;;;;;;4991426;28;20489;-74
2021/01/28 01:03:12;;;;;;;155.68;34.45;;;7.20;97.30;;;;;;4988233;28;20491;-75
2021/01/28 01:05:38;;;;;;;150.88;34.80;;;7.20;97.30;;;;;;4990352;28;20026;-75
2021/01/28 01:08:06;;;;;;;129.70;32.67;;;7.20;97.30;;;;;;4988606;28;20103;-74
2021/01/28 01:10:45;;;;;;;119.50;32.15;;;7.20;97.30;;;;;;4986441;28;20093;-74
2021/01/28 01:13:14;;;;;;;133.38;34.20;;;7.20;97.30;;;;;;5004678;28;20544;-75
2021/01/28 01:15:39;;;;;;;131.65;32.63;;;7.20;97.30;;;;;;4991541;28;20111;-75
2021/01/28 01:18:07;;;;;;;118.20;31.98;;;7.20;97.20;;;;;;4988173;28;20062;-74
2021/01/28 01:20:33;;;;;;;141.52;36.35;;;7.20;97.20;;;;;;5005503;28;20483;-74
2021/01/28 01:22:58;;;;;;;146.35;34.33;;;7.20;97.20;;;;;;4991304;28;20049;-75
2021/01/28 01:25:24;;;;;;;153.90;34.63;;;7.20;97.20;;;;;;4990517;28;20022;-74
2021/01/28 01:27:50;;;;;;;159.50;35.10;;;7.20;97.20;;;;;;4991618;28;20065;-74
2021/01/28 01:30:17;;;;;;;127.25;33.83;;;7.20;97.30;;;;;;4989977;28;20026;-74
2021/01/28 01:32:43;;;;;;;138.18;34.53;;;7.20;97.30;;;;;;4984451;28;20084;-74
2021/01/28 01:35:10;;;;;;;146.15;35.92;;;7.20;97.30;;;;;;4985174;28;20105;-74
2021/01/28 01:37:36;;;;;;;165.30;35.15;;;7.20;97.30;;;;;;4985740;28;20038;-74
2021/01/28 01:40:04;;;;;;;192.90;40.60;;;7.20;97.20;;;;;;4985400;28;20037;-74
2021/01/28 01:42:31;;;;;;;213.82;37.92;;;7.20;97.30;;;;;;4984991;28;20584;-74
2021/01/28 01:44:57;;;;;;;234.50;36.33;;;7.10;97.20;;;;;;4986504;28;20058;-74
2021/01/28 01:47:31;;;;;;;152.02;36.40;;;7.10;97.20;;;;;;4991251;28;20030;-74
2021/01/28 01:49:57;;;;;;;191.82;37.08;;;7.20;97.20;;;;;;4986086;28;20035;-74
2021/01/28 01:52:29;;;;;;;209.77;38.92;;;7.10;97.20;;;;;;5006351;28;20043;-74
2021/01/28 01:54:55;;;;;;;195.73;37.92;;;7.10;97.20;;;;;;4989743;28;20031;-75
2021/01/28 01:57:36;;;;;;;187.15;37.03;;;7.10;97.20;;;;;;4986543;28;20031;-74
2021/01/28 02:00:14;;;;;;;201.50;38.92;;;7.10;97.20;;;;;;4987778;28;20122;-74
2021/01/28 02:02:43;;;;;;;209.45;38.20;;;7.10;97.20;;;;;;4993518;28;20023;-74
2021/01/28 02:05:34;;;;;;;172.73;37.30;;;7.10;97.20;;;;;;4988143;28;20022;-74
2021/01/28 02:08:00;;;;;;;164.93;37.42;;;7.10;97.20;;;;;;4989375;28;20026;-74
2021/01/28 02:10:26;;;;;;;158.88;37.38;;;7.10;97.20;;;;;;4988033;28;20117;-74
2021/01/28 02:12:53;;;;;;;168.38;35.45;;;7.00;97.20;;;;;;5000916;28;20150;-73
2021/01/28 02:15:19;;;;;;;192.57;35.80;;;7.00;97.10;;;;;;4988610;28;20026;-74
2021/01/28 02:17:50;;;;;;;197.73;34.75;;;7.10;97.20;;;;;;4989791;28;20065;-73
2021/01/28 02:20:38;;;;;;;171.98;39.70;;;7.00;97.20;;;;;;4994449;28;20026;-74
2021/01/28 02:23:22;;;;;;;193.77;36.55;;;7.00;97.20;;;;;;4984290;28;20026;-73
2021/01/28 02:25:50;;;;;;;225.88;37.33;;;7.00;97.20;;;;;;4986453;28;20081;-73
2021/01/28 02:28:17;;;;;;;290.00;40.13;;;7.00;97.30;;;;;;4985508;28;20544;-74
2021/01/28 02:30:43;;;;;;;260.75;38.58;;;7.00;97.30;;;;;;4989582;28;20105;-73
2021/01/28 02:33:11;;;;;;;282.58;38.10;;;7.00;97.10;;;;;;4991361;28;20121;-73
2021/01/28 02:35:38;;;;;;;394.27;43.42;;;7.00;97.10;;;;;;4987486;28;20088;-73
2021/01/28 02:38:09;;;;;;;506.25;46.00;;;7.00;97.10;;;;;;4989340;28;20030;-73
2021/01/28 02:40:37;;;;;;;248.60;35.72;;;6.90;97.20;;;;;;4986429;28;20117;-74
2021/01/28 02:43:02;;;;;;;215.05;36.45;;;6.90;97.10;;;;;;4988041;28;20087;-73
2021/01/28 02:45:35;;;;;;;206.90;37.97;;;6.90;97.20;;;;;;4988588;28;20030;-73
2021/01/28 02:48:04;;;;;;;253.07;35.20;;;6.90;97.20;;;;;;4983330;28;20037;-74
2021/01/28 02:50:30;;;;;;;509.85;49.60;;;6.90;97.20;;;;;;4990718;28;20026;-74
2021/01/28 02:52:58;;;;;;;395.35;42.35;;;6.80;97.10;;;;;;4989600;28;20488;-73
2021/01/28 02:55:25;;;;;;;375.38;42.38;;;6.80;97.40;;;;;;4994495;28;20034;-75
2021/01/28 02:57:51;;;;;;;362.45;38.60;;;6.80;97.10;;;;;;4990860;28;20034;-72
2021/01/28 03:00:19;;;;;;;376.98;40.45;;;6.80;97.20;;;;;;4987456;28;20033;-72
2021/01/28 03:02:45;;;;;;;475.10;41.72;;;6.80;97.20;;;;;;4982006;28;20023;-72
2021/01/28 03:05:10;;;;;;;549.33;44.13;;;6.80;97.20;;;;;;4972529;28;20018;-72
2021/01/28 03:07:36;;;;;;;294.02;38.05;;;6.90;97.20;;;;;;4976359;28;20033;-72
2021/01/28 03:10:05;;;;;;;404.05;40.65;;;6.90;97.30;;;;;;4987893;28;20046;-72
2021/01/28 03:12:31;;;;;;;309.75;41.50;;;6.90;97.30;;;;;;4985637;28;20790;-73
2021/01/28 03:14:57;;;;;;;376.23;38.75;;;6.80;97.30;;;;;;4988154;28;20030;-73
2021/01/28 03:17:22;;;;;;;352.05;40.92;;;6.90;97.30;;;;;;4997579;28;20046;-72
2021/01/28 03:19:48;;;;;;;528.65;46.35;;;6.90;97.30;;;;;;4987344;28;20034;-72
2021/01/28 03:22:13;;;;;;;597.22;47.15;;;6.90;97.20;;;;;;4993704;28;20026;-72
2021/01/28 03:24:39;;;;;;;498.25;42.80;;;6.80;97.20;;;;;;4996592;28;20019;-72
2021/01/28 03:27:04;;;;;;;288.30;39.75;;;6.80;97.20;;;;;;4987910;28;20114;-73
2021/01/28 03:29:30;;;;;;;670.55;50.83;;;6.80;97.20;;;;;;4985287;28;20392;-73
2021/01/28 03:31:55;;;;;;;588.53;47.95;;;6.80;97.20;;;;;;4986622;28;20026;-73
2021/01/28 03:34:21;;;;;;;614.83;50.35;;;6.80;97.20;;;;;;4989775;28;20054;-73
2021/01/28 03:36:47;;;;;;;331.65;39.55;;;6.80;97.20;;;;;;4985907;28;20180;-73
2021/01/28 03:39:12;;;;;;;316.48;37.38;;;6.80;97.30;;;;;;4989522;28;20033;-73
2021/01/28 03:41:38;;;;;;;358.58;39.15;;;6.70;97.30;;;;;;4985898;28;20073;-73
2021/01/28 03:44:04;;;;;;;249.00;38.15;;;6.80;97.30;;;;;;4983349;28;20029;-73
2021/01/28 03:46:29;;;;;;;447.98;41.30;;;6.80;97.30;;;;;;4985932;28;20477;-73
2021/01/28 03:48:55;;;;;;;521.42;46.70;;;6.80;97.30;;;;;;4984927;28;20393;-73
2021/01/28 03:51:20;;;;;;;640.65;47.33;;;6.70;97.30;;;;;;4986923;28;20369;-73
2021/01/28 03:53:46;;;;;;;591.45;46.15;;;6.70;97.20;;;;;;4985112;28;20030;-73
2021/01/28 03:56:11;;;;;;;389.23;41.17;;;6.70;97.20;;;;;;4987867;28;20027;-73
2021/01/28 03:58:37;;;;;;;292.52;41.13;;;6.70;97.30;;;;;;4988009;28;20026;-73
2021/01/28 04:01:03;;;;;;;419.23;43.08;;;6.70;97.30;;;;;;4985565;28;20030;-73
2021/01/28 04:03:28;;;;;;;412.52;42.50;;;6.70;97.40;;;;;;4987244;28;20038;-73
2021/01/28 04:05:54;;;;;;;420.90;39.90;;;6.70;97.40;;;;;;4987836;28;20144;-73
2021/01/28 04:08:19;;;;;;;405.75;40.30;;;6.70;97.30;;;;;;4986643;28;20412;-73
2021/01/28 04:10:45;;;;;;;733.10;52.90;;;6.70;97.30;;;;;;4984052;28;20050;-73
2021/01/28 04:13:10;;;;;;;551.83;46.53;;;6.70;97.40;;;;;;4993390;28;20026;-73
2021/01/28 04:15:36;;;;;;;717.15;51.95;;;6.70;97.40;;;;;;4986060;28;20081;-73
2021/01/28 04:18:02;;;;;;;694.72;51.70;;;6.70;97.40;;;;;;4986890;28;20034;-73
2021/01/28 04:20:34;;;;;;;702.80;48.38;;;6.70;97.40;;;;;;4987560;28;20136;-73
2021/01/28 04:23:00;;;;;;;694.28;54.25;;;6.70;97.40;;;;;;4984804;28;20029;-73
2021/01/28 04:25:26;;;;;;;512.28;42.50;;;6.70;97.40;;;;;;4993253;28;20497;-73
2021/01/28 04:27:53;;;;;;;499.38;43.60;;;6.60;97.40;;;;;;4985456;28;20689;-73
2021/01/28 04:30:26;;;;;;;350.55;39.30;;;6.70;97.40;;;;;;4997390;28;20030;-73
2021/01/28 04:32:51;;;;;;;538.38;41.88;;;6.70;97.40;;;;;;4984259;28;20547;-73
2021/01/28 04:35:17;;;;;;;489.98;41.63;;;6.60;97.40;;;;;;4984301;28;20148;-73
2021/01/28 04:37:43;;;;;;;342.08;38.55;;;6.60;97.40;;;;;;4984615;28;20026;-73
2021/01/28 04:40:23;;;;;;;601.92;44.55;;;6.60;97.40;;;;;;4985980;28;20507;-73
2021/01/28 04:42:49;;;;;;;517.92;42.25;;;6.60;97.40;;;;;;4990368;28;20034;-73
2021/01/28 04:45:20;;;;;;;557.33;41.42;;;6.60;97.40;;;;;;4988857;28;20014;-73
2021/01/28 04:47:51;;;;;;;344.08;33.88;;;6.60;97.40;;;;;;4985046;28;20488;-73
2021/01/28 04:50:26;;;;;;;472.83;39.42;;;6.60;97.40;;;;;;4987742;28;20030;-73
2021/01/28 04:52:56;;;;;;;493.38;42.30;;;6.60;97.50;;;;;;4986217;28;20075;-73
2021/01/28 04:55:34;;;;;;;562.83;47.80;;;6.60;97.50;;;;;;4986995;28;20030;-73
2021/01/28 04:58:00;;;;;;;593.97;44.97;;;6.50;97.40;;;;;;4982500;28;20495;-73
2021/01/28 05:00:25;;;;;;;451.05;36.88;;;6.50;97.40;;;;;;4982363;28;20057;-73
2021/01/28 05:02:58;;;;;;;395.95;35.20;;;6.50;97.40;;;;;;4990098;28;20046;-73
2021/01/28 05:05:25;;;;;;;537.10;44.47;;;6.50;97.50;;;;;;4988979;28;20504;-73
2021/01/28 05:07:50;;;;;;;399.77;36.42;;;6.50;97.40;;;;;;4987655;28;20384;-73
2021/01/28 05:10:36;;;;;;;490.20;40.10;;;6.40;97.40;;;;;;4987101;28;20053;-73
2021/01/28 05:13:05;;;;;;;282.27;30.98;;;6.40;97.40;;;;;;4986749;28;20112;-73
2021/01/28 05:15:37;;;;;;;450.55;37.35;;;6.40;97.50;;;;;;4985040;28;20119;-73
2021/01/28 05:18:20;;;;;;;378.00;33.95;;;6.40;97.50;;;;;;4986301;28;20114;-73
2021/01/28 05:20:45;;;;;;;493.00;35.65;;;6.40;97.50;;;;;;4988376;28;21497;-73
2021/01/28 05:23:28;;;;;;;317.25;30.13;;;6.30;97.50;;;;;;4982298;28;20030;-73
2021/01/28 05:25:54;;;;;;;421.02;36.58;;;6.30;97.50;;;;;;4985228;28;20038;-74
2021/01/28 05:28:41;;;;;;;383.08;33.08;;;6.30;97.50;;;;;;4984645;28;20073;-74
2021/01/28 05:31:12;;;;;;;622.85;49.15;;;6.30;97.50;;;;;;4986560;28;20018;-74
2021/01/28 05:33:40;;;;;;;283.33;32.13;;;6.30;97.50;;;;;;4984798;28;20496;-73
2021/01/28 05:36:18;;;;;;;392.05;33.80;;;6.20;97.50;;;;;;4981747;28;20760;-74
2021/01/28 05:38:54;;;;;;;310.65;33.20;;;6.20;97.50;;;;;;4981068;28;20057;-74
2021/01/28 05:41:34;;;;;;;285.67;29.98;;;6.20;97.60;;;;;;4985496;28;20529;-74
2021/01/28 05:44:23;;;;;;;438.90;41.05;;;6.20;97.50;;;;;;4982207;28;20041;-74
2021/01/28 05:46:59;;;;;;;709.17;62.63;;;6.30;97.60;;;;;;4985142;28;20528;-74
2021/01/28 05:49:25;;;;;;;310.55;32.15;;;6.20;97.50;;;;;;4987254;28;20112;-74
2021/01/28 05:51:51;;;;;;;483.77;44.72;;;6.20;97.50;;;;;;4988818;28;20061;-74
2021/01/28 05:54:23;;;;;;;167.80;28.05;;;6.20;97.60;;;;;;4987224;28;20119;-74
2021/01/28 05:57:06;;;;;;;153.30;25.98;;;6.10;97.50;;;;;;4981427;28;20049;-74
2021/01/28 06:00:15;;;;;;;146.23;26.65;;;6.10;97.60;;;;;;4984755;28;20045;-74
2021/01/28 06:02:53;;;;;;;143.77;24.25;;;6.10;97.60;;;;;;4987929;28;20033;-74
2021/01/28 06:05:36;;;;;;;115.15;22.75;;;6.10;97.60;;;;;;4989229;28;20660;-74
2021/01/28 06:08:24;;;;;;;83.18;20.83;;;6.10;97.60;;;;;;4986455;28;20042;-75
2021/01/28 06:11:05;;;;;;;101.50;21.90;;;6.10;97.60;;;;;;4983740;28;20080;-74
2021/01/28 06:13:55;;;;;;;86.53;21.17;;;6.10;97.60;;;;;;4990380;28;20100;-75
2021/01/28 06:16:38;;;;;;;82.13;20.08;;;6.10;97.60;;;;;;4983369;28;20030;-75
2021/01/28 06:19:36;;;;;;;83.72;19.42;;;6.10;97.60;;;;;;4989295;28;20030;-75
2021/01/28 06:22:08;;;;;;;60.90;15.85;;;6.10;97.70;;;;;;4989958;28;20100;-75
2021/01/28 06:24:46;;;;;;;65.65;17.20;;;6.10;97.70;;;;;;5036665;28;20032;-76
2021/01/28 06:27:47;;;;;;;54.90;14.73;;;6.10;97.70;;;;;;4992237;28;20034;-75
2021/01/28 06:30:35;;;;;;;60.65;16.35;;;6.10;97.60;;;;;;5033501;28;20585;-75
2021/01/28 06:33:16;;;;;;;58.95;16.27;;;6.10;97.60;;;;;;5020078;28;20034;-75
2021/01/28 06:35:45;;;;;;;53.90;16.27;;;6.10;97.70;;;;;;4986836;28;20034;-75
2021/01/28 06:38:49;;;;;;;52.22;15.85;;;6.10;97.70;;;;;;5071814;28;20028;-75
2021/01/28 06:41:20;;;;;;;42.13;13.85;;;6.10;97.60;;;;;;4994566;28;20033;-75
2021/01/28 06:44:02;;;;;;;49.53;14.75;;;6.10;97.60;;;;;;4988817;28;20018;-75
2021/01/28 06:46:41;;;;;;;50.20;14.80;;;6.10;97.60;;;;;;5009949;28;20047;-75
2021/01/28 06:49:20;;;;;;;43.63;13.55;;;6.00;97.60;;;;;;5010129;28;20034;-75
2021/01/28 06:51:59;;;;;;;41.55;13.85;;;6.10;97.60;;;;;;5001991;28;20113;-75
2021/01/28 06:54:34;;;;;;;36.83;10.57;;;6.10;97.60;;;;;;5030616;28;20041;-76
2021/01/28 06:57:04;;;;;;;30.75;12.00;;;6.10;97.60;;;;;;4984317;28;20472;-76
2021/01/28 06:59:42;;;;;;;36.35;12.15;;;6.10;97.60;;;;;;4987004;28;20022;-76
2021/01/28 07:02:41;;;;;;;34.65;13.25;;;6.10;97.60;;;;;;4985025;28;20492;-76
2021/01/28 07:05:25;;;;;;;35.83;12.02;;;6.10;97.60;;;;;;4994200;28;20034;-75
2021/01/28 07:08:04;;;;;;;34.40;10.73;;;6.00;97.50;;;;;;5001812;28;20023;-75
2021/01/28 07:10:38;;;;;;;42.28;12.50;;;6.00;97.60;;;;;;4997400;28;20514;-76
2021/01/28 07:13:05;;;;;;;35.58;11.68;;;6.00;97.50;;;;;;4989797;28;20030;-76
2021/01/28 07:15:31;;;;;;;39.95;12.30;;;6.00;97.60;;;;;;4985845;28;20473;-75
2021/01/28 07:18:09;;;;;;;30.05;10.73;;;6.00;97.50;;;;;;4994115;28;20045;-76
2021/01/28 07:21:05;;;;;;;31.80;10.88;;;6.00;97.60;;;;;;4991928;28;20034;-75
2021/01/28 07:23:37;;;;;;;37.97;11.45;;;6.00;97.60;;;;;;4981973;28;20480;-76
2021/01/28 07:26:16;;;;;;;32.05;11.20;;;6.00;97.60;;;;;;4985538;28;20492;-76
2021/01/28 07:28:44;;;;;;;27.63;9.55;;;6.00;97.50;;;;;;4996290;28;20038;-75
2021/01/28 07:31:40;;;;;;;26.52;9.10;;;6.00;97.50;;;;;;4992844;28;20030;-76
2021/01/28 07:34:10;;;;;;;22.80;9.00;;;5.90;97.50;;;;;;4985074;28;20041;-77
2021/01/28 07:36:40;;;;;;;27.98;9.00;;;6.00;97.50;;;;;;4991648;28;20025;-77
2021/01/28 07:39:28;;;;;;;29.08;10.18;;;5.90;97.50;;;;;;4979440;28;20031;-76
2021/01/28 07:41:59;;;;;;;27.73;9.23;;;5.90;97.50;;;;;;4995380;28;20079;-77
2021/01/28 07:44:30;;;;;;;27.90;9.95;;;5.90;97.50;;;;;;4971272;28;20025;-77
2021/01/28 07:46:58;;;;;;;25.10;8.70;;;5.90;97.50;;;;;;4989832;28;20050;-77
2021/01/28 07:49:35;;;;;;;24.67;8.70;;;5.90;97.50;;;;;;4985668;28;20542;-74
2021/01/28 07:52:00;;;;;;;23.90;8.18;;;5.90;97.40;;;;;;4979937;28;20030;-74
2021/01/28 07:54:26;;;;;;;19.00;8.68;;;5.90;97.50;;;;;;4990621;28;20793;-75
2021/01/28 07:56:58;;;;;;;21.65;8.18;;;5.90;97.50;;;;;;4989436;28;20034;-75
2021/01/28 07:59:54;;;;;;;19.13;7.57;;;5.90;97.50;;;;;;4998709;28;20602;-75
2021/01/28 08:02:29;;;;;;;19.15;7.53;;;5.90;97.50;;;;;;4987193;28;20030;-75
2021/01/28 08:05:12;;;;;;;17.77;7.45;;;5.90;97.50;;;;;;4989749;28;20076;-75
2021/01/28 08:07:42;;;;;;;19.92;7.45;;;5.90;97.50;;;;;;4985608;28;20023;-75
2021/01/28 08:10:26;;;;;;;17.42;6.93;;;5.90;97.40;;;;;;4989783;28;20427;-76
2021/01/28 08:13:23;;;;;;;18.42;7.03;;;5.90;97.40;;;;;;4972345;28;20041;-75
2021/01/28 08:15:53;;;;;;;20.33;7.03;;;5.90;97.50;;;;;;4980184;28;20035;-74
2021/01/28 08:18:26;;;;;;;16.35;6.80;;;5.90;97.40;;;;;;5003031;28;20060;-75
2021/01/28 08:21:09;;;;;;;21.27;8.43;;;5.90;97.40;;;;;;4987564;28;20030;-75
2021/01/28 08:23:37;;;;;;;18.85;7.07;;;5.90;97.40;;;;;;4997376;28;20022;-75
2021/01/28 08:26:07;;;;;;;16.58;6.15;;;6.00;97.50;;;;;;4992890;28;20030;-74
2021/01/28 08:28:36;;;;;;;16.00;6.38;;;6.00;97.40;;;;;;4985209;28;20043;-74
2021/01/28 08:31:08;;;;;;;17.17;6.53;;;6.00;97.40;;;;;;4991424;28;20034;-75
2021/01/28 08:33:37;;;;;;;16.80;7.30;;;6.00;97.40;;;;;;4982835;28;20119;-75
2021/01/28 08:36:22;;;;;;;18.02;6.53;;;6.00;97.40;;;;;;4989288;28;20034;-76
2021/01/28 08:38:48;;;;;;;13.05;6.28;;;6.00;97.40;;;;;;4985090;28;20022;-75
2021/01/28 08:41:17;;;;;;;17.13;6.90;;;5.90;97.40;;;;;;4982787;28;20027;-76
2021/01/28 08:43:43;;;;;;;17.10;7.05;;;6.00;97.40;;;;;;4984970;28;20038;-75
2021/01/28 08:46:12;;;;;;;17.90;6.18;;;6.00;97.40;;;;;;4988483;28;20030;-75
2021/01/28 08:48:39;;;;;;;17.08;6.32;;;6.00;97.40;;;;;;4986583;28;20026;-76
2021/01/28 08:51:22;;;;;;;14.10;6.55;;;6.00;97.40;;;;;;4988961;28;20030;-75
2021/01/28 08:53:58;;;;;;;12.20;6.15;;;6.00;97.40;;;;;;4992309;28;20068;-75
2021/01/28 08:56:27;;;;;;;13.68;6.18;;;6.00;97.40;;;;;;4983729;28;20554;-75
2021/01/28 08:58:54;;;;;;;12.02;5.50;;;6.00;97.40;;;;;;4989790;28;20038;-76
2021/01/28 09:01:20;;;;;;;11.38;5.03;;;6.00;97.30;;;;;;4986698;28;20365;-76
2021/01/28 09:03:54;;;;;;;15.27;6.38;;;6.00;97.40;;;;;;4978803;28;20030;-76
2021/01/28 09:06:19;;;;;;;13.90;5.45;;;6.00;97.40;;;;;;4986357;28;20034;-76
2021/01/28 09:08:45;;;;;;;8.82;4.22;;;6.00;97.30;;;;;;4988084;28;20029;-75
2021/01/28 09:11:24;;;;;;;10.95;5.07;;;6.00;97.30;;;;;;4994415;28;20121;-75
2021/01/28 09:14:18;;;;;;;12.18;5.07;;;6.00;97.30;;;;;;4995037;28;20030;-76
2021/01/28 09:16:56;;;;;;;11.93;5.53;;;6.00;97.30;;;;;;4983738;28;20509;-75
2021/01/28 09:19:23;;;;;;;10.60;4.63;;;6.00;97.30;;;;;;4998011;28;20046;-75
2021/01/28 09:21:55;;;;;;;9.43;4.72;;;6.00;97.30;;;;;;4995143;28;20039;-76
2021/01/28 09:24:56;;;;;;;9.60;4.90;;;6.00;97.30;;;;;;4994797;28;20022;-75
2021/01/28 09:27:21;;;;;;;8.30;3.47;;;6.00;97.30;;;;;;4973332;28;20124;-75
2021/01/28 09:29:51;;;;;;;8.07;4.13;;;6.00;97.30;;;;;;4991565;28;20473;-75
2021/01/28 09:32:22;;;;;;;7.63;3.58;;;5.90;97.20;;;;;;4989553;28;20406;-76
2021/01/28 09:35:08;;;;;;;7.70;3.72;;;5.90;97.20;;;;;;4991952;28;20026;-75
2021/01/28 09:37:37;;;;;;;5.78;3.03;;;5.90;97.20;;;;;;5006823;28;20068;-76
2021/01/28 09:40:29;;;;;;;8.45;3.53;;;5.90;97.20;;;;;;4992270;28;20026;-76
2021/01/28 09:43:31;;;;;;;6.20;2.80;;;5.90;97.20;;;;;;4988032;28;20026;-75
2021/01/28 09:46:14;;;;;;;8.90;3.65;;;5.90;97.20;;;;;;4998443;28;20050;-76
2021/01/28 09:48:40;;;;;;;9.15;3.92;;;5.90;97.20;;;;;;4983047;28;20098;-75
2021/01/28 09:51:07;;;;;;;8.07;4.05;;;6.00;97.20;;;;;;5007259;28;20038;-75
2021/01/28 09:53:33;;;;;;;8.07;4.30;;;6.00;97.30;;;;;;5000688;28;20088;-76
2021/01/28 09:55:59;;;;;;;8.35;4.60;;;6.00;97.20;;;;;;4991686;28;20606;-76
2021/01/28 09:58:24;;;;;;;8.50;4.45;;;6.00;97.20;;;;;;4990725;28;20540;-75
2021/01/28 10:00:51;;;;;;;8.98;4.13;;;6.00;97.20;;;;;;4993757;28;20072;-76
2021/01/28 10:03:17;;;;;;;26.17;4.30;;;6.00;97.20;;;;;;4999144;28;20023;-76
2021/01/28 10:05:42;;;;;;;9.95;4.68;;;6.00;97.20;;;;;;4990697;28;20117;-75
2021/01/28 10:08:09;;;;;;;9.23;4.95;;;6.00;97.20;;;;;;4992445;28;20023;-75
2021/01/28 10:10:38;;;;;;;8.95;5.03;;;6.00;97.20;;;;;;4991257;28;20035;-76
2021/01/28 10:13:08;;;;;;;12.80;4.88;;;6.00;97.20;;;;;;4990336;28;20041;-76
2021/01/28 10:15:33;;;;;;;8.57;4.32;;;6.00;97.20;;;;;;4976266;28;20033;-76
2021/01/28 10:17:59;;;;;;;9.50;5.38;;;6.10;97.20;;;;;;4988771;28;20031;-75
2021/01/28 10:20:25;;;;;;;9.70;5.90;;;6.10;97.20;;;;;;4989473;28;20038;-76
2021/01/28 10:22:51;;;;;;;15.82;6.18;;;6.10;97.20;;;;;;4982791;28;20097;-76
2021/01/28 10:25:20;;;;;;;7.97;4.47;;;6.10;97.20;;;;;;4995567;28;20035;-76
2021/01/28 10:27:46;;;;;;;9.40;5.70;;;6.10;97.20;;;;;;4989641;28;20019;-75
2021/01/28 10:30:15;;;;;;;12.05;6.43;;;6.10;97.20;;;;;;4982930;28;20045;-76
2021/01/28 10:32:45;;;;;;;9.43;6.57;;;6.00;97.10;;;;;;4996703;28;20072;-76
2021/01/28 10:35:12;;;;;;;12.23;7.68;;;6.00;97.10;;;;;;4988728;28;20034;-76
2021/01/28 10:37:38;;;;;;;13.32;7.57;;;6.00;97.10;;;;;;4986312;28;20038;-75
2021/01/28 10:40:05;;;;;;;12.25;7.50;;;6.00;97.10;;;;;;4988960;28;20498;-75
2021/01/28 10:42:40;;;;;;;11.88;7.32;;;6.00;97.10;;;;;;4995747;28;20050;-75
2021/01/28 10:45:10;;;;;;;12.27;7.75;;;6.00;97.10;;;;;;4983322;28;20071;-76
2021/01/28 10:47:36;;;;;;;9.98;6.35;;;6.00;97.10;;;;;;4989615;28;20375;-75
2021/01/28 10:50:03;;;;;;;11.73;6.85;;;6.00;97.10;;;;;;4986753;28;20046;-75
2021/01/28 10:52:28;;;;;;;10.50;6.45;;;6.00;97.10;;;;;;4990174;28;20488;-75
2021/01/28 10:54:54;;;;;;;11.07;6.80;;;6.00;97.10;;;;;;4991305;28;20069;-75
2021/01/28 10:57:19;;;;;;;10.82;6.25;;;6.00;97.00;;;;;;5000469;28;20042;-76
2021/01/28 10:59:45;;;;;;;10.18;6.30;;;6.00;97.00;;;;;;4978318;28;20039;-76
2021/01/28 11:02:10;;;;;;;10.60;6.40;;;6.00;97.10;;;;;;4987584;28;20030;-74
2021/01/28 11:04:36;;;;;;;10.10;6.35;;;6.10;97.10;;;;;;4988559;28;20023;-74
2021/01/28 11:07:01;;;;;;;11.48;6.85;;;6.10;97.10;;;;;;4981181;28;20026;-74
2021/01/28 11:09:27;;;;;;;10.07;6.80;;;6.10;97.10;;;;;;4990971;28;20043;-75
2021/01/28 11:11:52;;;;;;;11.55;7.50;;;6.10;97.10;;;;;;4982767;28;20059;-75
2021/01/28 11:14:18;;;;;;;15.90;8.07;;;6.20;97.10;;;;;;4987439;28;20110;-75
2021/01/28 11:16:43;;;;;;;11.27;7.22;;;6.20;97.10;;;;;;4993309;28;20038;-74
2021/01/28 11:19:09;;;;;;;13.18;7.80;;;6.20;97.10;;;;;;4986721;28;20015;-75
2021/01/28 11:21:34;;;;;;;14.13;7.78;;;6.20;97.10;;;;;;4975195;28;20046;-74
2021/01/28 11:24:00;;;;;;;12.57;8.15;;;6.20;97.10;;;;;;4982010;28;20034;-74
2021/01/28 11:26:26;;;;;;;15.18;8.93;;;6.20;97.10;;;;;;4992177;28;20034;-74
2021/01/28 11:28:51;;;;;;;14.23;9.27;;;6.30;97.10;;;;;;4992096;28;20026;-75
2021/01/28 11:31:17;;;;;;;11.52;7.82;;;6.30;97.10;;;;;;4988291;28;20079;-75
2021/01/28 11:33:42;;;;;;;11.57;7.15;;;6.30;97.00;;;;;;4990630;28;20084;-75
2021/01/28 11:36:08;;;;;;;11.93;8.07;;;6.40;97.00;;;;;;5013081;28;20024;-76
2021/01/28 11:38:34;;;;;;;11.55;7.10;;;6.40;96.90;;;;;;4989680;28;20030;-76
2021/01/28 11:41:02;;;;;;;9.20;6.53;;;6.40;96.90;;;;;;4977740;28;20419;-75
2021/01/28 11:43:28;;;;;;;12.15;8.13;;;6.30;96.80;;;;;;4983355;28;20023;-75
2021/01/28 11:45:53;;;;;;;14.98;8.98;;;6.30;96.80;;;;;;4988526;28;20144;-75
2021/01/28 11:48:18;;;;;;;14.45;8.68;;;6.30;96.80;;;;;;4986423;28;20548;-75
2021/01/28 11:50:44;;;;;;;13.35;8.35;;;6.30;96.90;;;;;;4998327;28;20030;-75
2021/01/28 11:53:09;;;;;;;14.85;9.48;;;6.30;96.90;;;;;;4986815;28;20034;-75
2021/01/28 11:55:35;;;;;;;16.45;10.50;;;6.40;96.90;;;;;;4983680;28;20036;-75
2021/01/28 11:58:01;;;;;;;16.50;10.98;;;6.40;96.90;;;;;;4981157;28;20076;-76
2021/01/28 12:00:27;;;;;;;13.82;9.27;;;6.30;96.80;;;;;;4980568;28;20041;-75
2021/01/28 12:02:53;;;;;;;14.07;9.23;;;6.30;96.80;;;;;;4983217;28;20058;-75
2021/01/28 12:05:22;;;;;;;16.40;11.02;;;6.30;96.80;;;;;;4990125;28;20062;-74
2021/01/28 12:07:48;;;;;;;14.25;9.82;;;6.30;96.90;;;;;;4985901;28;20026;-76
2021/01/28 12:10:16;;;;;;;16.98;10.25;;;6.40;96.90;;;;;;4984382;28;20377;-75
2021/01/28 12:12:42;;;;;;;13.45;9.45;;;6.40;96.90;;;;;;4989868;28;20117;-75
2021/01/28 12:15:08;;;;;;;13.85;9.40;;;6.40;96.90;;;;;;4986623;28;20112;-76
2021/01/28 12:17:35;;;;;;;12.07;8.95;;;6.50;96.80;;;;;;4985753;28;20060;-76
2021/01/28 12:20:00;;;;;;;12.60;8.70;;;6.50;96.70;;;;;;4980312;28;20121;-76
2021/01/28 12:22:26;;;;;;;12.75;9.07;;;6.50;96.80;;;;;;4986477;28;20117;-76
2021/01/28 12:24:52;;;;;;;12.27;8.32;;;6.50;96.60;;;;;;4988390;28;20533;-76
2021/01/28 12:27:17;;;;;;;13.27;8.60;;;6.40;96.70;;;;;;5030193;28;20034;-75
2021/01/28 12:29:43;;;;;;;14.25;9.52;;;6.50;96.60;;;;;;5006648;28;20026;-77
2021/01/28 12:32:09;;;;;;;15.75;12.00;;;6.40;96.60;;;;;;4992912;28;20032;-76
2021/01/28 12:34:36;;;;;;;19.98;13.90;;;6.50;96.60;;;;;;5003916;28;20026;-76
2021/01/28 12:37:02;;;;;;;18.30;13.38;;;6.50;96.60;;;;;;4999441;28;20476;-76
2021/01/28 12:39:28;;;;;;;22.33;16.45;;;6.40;96.60;;;;;;4990242;28;20027;-77
2021/01/28 12:41:54;;;;;;;24.65;17.60;;;6.40;96.60;;;;;;4986703;28;20121;-76
2021/01/28 12:44:20;;;;;;;27.23;17.42;;;6.40;96.50;;;;;;4993884;28;20117;-76
2021/01/28 12:46:46;;;;;;;20.77;15.32;;;6.40;96.50;;;;;;4985378;28;20038;-76
2021/01/28 12:49:11;;;;;;;23.80;17.40;;;6.30;96.50;;;;;;4983468;28;20483;-76
2021/01/28 12:51:37;;;;;;;23.67;16.98;;;6.30;96.60;;;;;;4989511;28;20060;-76
2021/01/28 12:54:02;;;;;;;23.70;17.33;;;6.30;96.60;;;;;;4982139;28;20030;-77